createdAt,value
2019-05-29T00:00:00.524Z,97.20
2019-05-29T00:02:02.991Z,97.00
2019-05-29T00:04:06.164Z,97.40
2019-05-29T00:06:08.771Z,97.70
2019-05-29T00:08:12.283Z,98.10
2019-05-29T00:10:14.784Z,98.30
2019-05-29T00:12:19.585Z,98.30
2019-05-29T00:14:27.188Z,98.30
2019-05-29T00:16:25.734Z,98.30
2019-05-29T00:18:28.080Z,98.30
2019-05-29T00:20:30.508Z,98.30
2019-05-29T00:22:32.983Z,98.30
2019-05-29T00:24:35.517Z,98.30
2019-05-29T00:26:37.966Z,98.30
2019-05-29T00:28:40.325Z,98.30
2019-05-29T00:30:42.798Z,98.30
2019-05-29T00:32:45.208Z,98.30
2019-05-29T00:34:47.648Z,98.30
2019-05-29T00:36:50.058Z,98.30
2019-05-29T00:38:52.421Z,98.30
2019-05-29T00:40:54.806Z,98.30
2019-05-29T00:42:57.316Z,98.30
2019-05-29T00:44:59.779Z,98.30
2019-05-29T00:47:02.297Z,98.30
2019-05-29T00:49:08.201Z,98.30
2019-05-29T00:54:43.059Z,98.30
2019-05-29T00:56:42.751Z,98.30
2019-05-29T00:58:45.352Z,98.30
2019-05-29T01:00:47.690Z,98.30
2019-05-29T01:02:50.274Z,98.30
2019-05-29T01:04:52.880Z,98.30
2019-05-29T01:06:55.883Z,98.30
2019-05-29T01:08:58.300Z,98.30
2019-05-29T01:11:00.572Z,98.30
2019-05-29T05:39:15.159Z,98.30
2019-05-29T05:41:17.621Z,98.30
2019-05-29T05:43:24.173Z,98.30
2019-05-29T05:45:24.324Z,97.00
2019-05-29T05:47:43.407Z,96.90
2019-05-29T05:49:31.295Z,95.50
2019-05-29T05:51:39.700Z,96.20
2019-05-29T05:53:41.759Z,96.40
2019-05-29T05:55:46.594Z,95.50
2019-05-29T05:57:48.903Z,94.10
2019-05-29T05:59:51.344Z,93.70
2019-05-29T06:01:53.805Z,94.10
2019-05-29T06:03:56.022Z,93.90
2019-05-29T06:05:58.094Z,93.60
2019-05-29T06:08:00.432Z,93.40
2019-05-29T06:10:07.403Z,93.50
2019-05-29T06:12:09.496Z,93.50
2019-05-29T06:14:11.454Z,93.00
2019-05-29T06:16:13.705Z,93.20
2019-05-29T06:18:21.528Z,92.90
2019-05-29T06:20:20.459Z,92.00
2019-05-29T06:22:22.736Z,91.80
2019-05-29T06:24:25.036Z,91.80
2019-05-29T06:26:27.426Z,91.70
2019-05-29T06:28:29.776Z,91.40
2019-05-29T06:30:33.922Z,91.40
2019-05-29T06:32:37.404Z,90.60
2019-05-29T06:34:39.911Z,90.90
2019-05-29T06:36:42.127Z,91.10
2019-05-29T06:38:44.551Z,88.20
2019-05-29T06:40:46.746Z,88.30
2019-05-29T06:42:49.138Z,89.30
2019-05-29T06:44:51.756Z,89.00
2019-05-29T06:46:53.800Z,90.00
2019-05-29T06:49:00.226Z,91.20
2019-05-29T06:50:59.410Z,91.80
2019-05-29T06:53:01.294Z,90.80
2019-05-29T06:55:03.416Z,90.20
2019-05-29T06:57:05.437Z,90.80
2019-05-29T06:59:07.383Z,91.10
2019-05-29T07:01:09.520Z,90.90
2019-05-29T07:03:11.575Z,90.10
2019-05-29T07:05:13.672Z,89.60
2019-05-29T07:07:15.777Z,89.00
2019-05-29T07:09:17.607Z,89.10
2019-05-29T07:11:19.561Z,88.60
2019-05-29T07:13:22.053Z,87.80
2019-05-29T07:15:24.063Z,86.40
2019-05-29T07:17:25.897Z,86.30
2019-05-29T07:19:47.109Z,85.70
2019-05-29T07:21:31.755Z,85.50
2019-05-29T07:23:33.615Z,85.60
2019-05-29T07:25:36.748Z,86.40
2019-05-29T07:27:38.913Z,86.80
2019-05-29T07:29:41.193Z,86.80
2019-05-29T07:31:43.686Z,86.90
2019-05-29T07:33:45.487Z,86.10
2019-05-29T07:35:47.806Z,85.60
2019-05-29T07:37:49.989Z,85.50
2019-05-29T07:39:52.078Z,86.40
2019-05-29T07:41:53.998Z,86.30
2019-05-29T07:43:55.926Z,85.90
2019-05-29T07:45:58.060Z,85.70
2019-05-29T07:48:00.013Z,85.40
2019-05-29T07:50:01.940Z,86.30
2019-05-29T07:52:04.008Z,86.60
2019-05-29T07:54:05.819Z,85.50
2019-05-29T07:57:03.081Z,85.10
2019-05-29T07:59:05.200Z,85.00
2019-05-29T08:01:13.397Z,85.20
2019-05-29T08:03:11.734Z,84.60
2019-05-29T08:05:13.869Z,84.00
2019-05-29T08:07:15.955Z,85.30
2019-05-29T08:09:18.034Z,84.00
2019-05-29T08:11:20.106Z,84.80
2019-05-29T08:13:22.128Z,85.80
2019-05-29T08:15:24.340Z,84.60
2019-05-29T08:17:26.161Z,84.50
2019-05-29T08:19:28.202Z,83.70
2019-05-29T08:21:30.034Z,82.10
2019-05-29T08:23:31.972Z,83.00
2019-05-29T08:25:34.039Z,83.00
2019-05-29T08:27:36.005Z,82.90
2019-05-29T08:29:37.929Z,82.50
2019-05-29T08:31:40.684Z,82.90
2019-05-29T08:33:42.926Z,83.20
2019-05-29T08:35:45.363Z,83.20
2019-05-29T08:37:47.477Z,83.70
2019-05-29T08:39:49.582Z,83.70
2019-05-29T08:42:17.601Z,84.00
2019-05-29T08:43:55.538Z,84.00
2019-05-29T08:45:57.479Z,84.00
2019-05-29T08:47:59.295Z,84.70
2019-05-29T08:50:17.628Z,84.40
2019-05-29T08:52:11.629Z,83.60
2019-05-29T08:54:23.616Z,83.40
2019-05-29T08:56:13.074Z,83.80
2019-05-29T08:58:14.971Z,81.90
2019-05-29T09:00:17.473Z,82.40
2019-05-29T09:02:19.507Z,82.50
2019-05-29T09:04:21.320Z,83.40
2019-05-29T09:06:23.222Z,83.50
2019-05-29T09:08:25.063Z,83.70
2019-05-29T09:10:27.054Z,82.30
2019-05-29T09:12:29.930Z,81.90
2019-05-29T09:14:32.146Z,79.60
2019-05-29T09:16:34.159Z,78.50
2019-05-29T09:18:36.069Z,79.40
2019-05-29T09:21:00.834Z,80.10
2019-05-29T09:22:41.827Z,81.20
2019-05-29T09:24:43.907Z,81.00
2019-05-29T09:26:46.565Z,80.00
2019-05-29T09:28:48.787Z,79.90
2019-05-29T09:30:50.900Z,81.10
2019-05-29T09:32:53.354Z,79.70
2019-05-29T09:34:55.513Z,79.90
2019-05-29T09:36:57.549Z,80.70
2019-05-29T09:38:59.336Z,81.80
2019-05-29T09:41:01.879Z,82.00
2019-05-29T09:43:03.890Z,81.50
2019-05-29T09:45:05.984Z,80.30
2019-05-29T09:47:07.928Z,78.80
2019-05-29T09:49:09.957Z,78.80
2019-05-29T09:51:21.198Z,77.90
2019-05-29T09:53:15.750Z,77.30
2019-05-29T09:55:18.314Z,75.70
2019-05-29T09:57:20.043Z,75.70
2019-05-29T09:59:21.998Z,76.30
2019-05-29T10:01:25.298Z,76.20
2019-05-29T10:03:28.173Z,77.00
2019-05-29T10:05:30.037Z,77.30
2019-05-29T10:07:31.846Z,77.80
2019-05-29T10:09:33.901Z,79.10
2019-05-29T10:11:35.966Z,80.20
2019-05-29T10:13:37.921Z,80.40
2019-05-29T10:15:39.947Z,80.70
2019-05-29T10:17:41.834Z,78.90
2019-05-29T10:19:44.136Z,78.60
2019-05-29T10:21:46.267Z,79.20
2019-05-29T10:23:48.428Z,80.30
2019-05-29T10:25:50.300Z,80.70
2019-05-29T10:27:52.173Z,80.70
2019-05-29T10:29:54.310Z,80.40
2019-05-29T10:31:56.219Z,78.30
2019-05-29T10:33:58.146Z,76.70
2019-05-29T10:36:03.754Z,75.10
2019-05-29T10:38:04.035Z,74.50
2019-05-29T10:40:06.269Z,73.90
2019-05-29T10:42:08.218Z,74.10
2019-05-29T10:44:12.757Z,75.00
2019-05-29T10:46:14.009Z,75.10
2019-05-29T10:48:16.123Z,74.90
2019-05-29T10:50:18.116Z,75.80
2019-05-29T10:52:20.077Z,75.80
2019-05-29T10:54:22.077Z,73.90
2019-05-29T10:56:24.019Z,73.70
2019-05-29T10:58:26.835Z,73.30
2019-05-29T11:00:29.153Z,73.60
2019-05-29T11:02:33.707Z,74.40
2019-05-29T11:04:35.808Z,74.20
2019-05-29T11:06:40.574Z,75.00
2019-05-29T11:08:41.514Z,75.20
2019-05-29T11:10:43.562Z,77.00
2019-05-29T11:12:46.358Z,77.10
2019-05-29T11:14:57.343Z,77.60
2019-05-29T11:16:59.268Z,76.50
2019-05-29T11:19:01.142Z,75.60
2019-05-29T11:21:03.229Z,74.50
2019-05-29T11:23:05.148Z,73.80
2019-05-29T11:25:22.167Z,72.70
2019-05-29T11:27:12.261Z,74.50
2019-05-29T11:29:14.391Z,74.70
2019-05-29T11:31:16.436Z,73.10
2019-05-29T11:33:18.412Z,73.80
2019-05-29T11:35:20.434Z,72.70
2019-05-29T11:37:22.416Z,72.40
2019-05-29T11:39:24.451Z,72.70
2019-05-29T11:41:26.910Z,69.30
2019-05-29T11:43:29.043Z,67.60
2019-05-29T11:45:35.196Z,66.80
2019-05-29T11:47:34.896Z,66.10
2019-05-29T11:49:36.856Z,66.90
2019-05-29T11:51:38.976Z,68.10
2019-05-29T11:53:41.013Z,69.90
2019-05-29T11:55:42.796Z,70.30
2019-05-29T11:57:44.698Z,71.60
2019-05-29T11:59:46.577Z,72.20
2019-05-29T12:01:50.709Z,72.00
2019-05-29T12:04:15.572Z,73.40
2019-05-29T12:05:57.454Z,74.30
2019-05-29T12:07:59.659Z,73.00
2019-05-29T12:10:04.387Z,70.20
2019-05-29T12:12:05.427Z,69.10
2019-05-29T12:14:07.321Z,69.30
2019-05-29T12:16:09.173Z,68.90
2019-05-29T12:18:23.060Z,70.40
2019-05-29T12:20:31.918Z,71.20
2019-05-29T12:22:20.538Z,72.10
2019-05-29T12:24:22.518Z,71.50
2019-05-29T12:26:24.410Z,70.00
2019-05-29T12:28:26.311Z,67.50
2019-05-29T12:30:28.612Z,65.20
2019-05-29T12:32:30.485Z,65.40
2019-05-29T12:34:32.296Z,66.00
2019-05-29T12:36:34.183Z,65.80
2019-05-29T12:38:36.086Z,65.60
2019-05-29T12:40:37.966Z,67.10
2019-05-29T12:42:44.548Z,68.40
2019-05-29T12:44:43.738Z,68.30
2019-05-29T12:46:45.799Z,67.60
2019-05-29T12:48:47.720Z,65.40
2019-05-29T12:50:49.839Z,66.00
2019-05-29T12:52:51.646Z,67.00
2019-05-29T12:54:53.887Z,67.80
2019-05-29T12:56:56.037Z,64.90
2019-05-29T12:58:58.402Z,62.10
2019-05-29T13:01:00.803Z,62.50
2019-05-29T13:03:05.190Z,62.40
2019-05-29T13:05:16.355Z,59.90
2019-05-29T13:07:11.623Z,62.10
2019-05-29T13:09:13.499Z,63.10
2019-05-29T13:11:15.359Z,62.30
2019-05-29T13:13:17.258Z,61.00
2019-05-29T13:15:19.679Z,55.70
2019-05-29T13:17:21.455Z,53.90
2019-05-29T13:19:23.494Z,53.20
2019-05-29T13:21:25.359Z,51.80
2019-05-29T13:23:27.466Z,54.50
2019-05-29T13:25:29.466Z,53.00
2019-05-29T13:27:31.218Z,52.70
2019-05-29T13:29:33.100Z,56.40
2019-05-29T13:31:35.233Z,57.30
2019-05-29T13:33:37.111Z,55.80
2019-05-29T13:35:39.010Z,52.70
2019-05-29T13:37:40.787Z,48.70
2019-05-29T13:39:42.707Z,49.40
2019-05-29T13:41:44.480Z,53.10
2019-05-29T13:43:46.390Z,53.60
2019-05-29T13:45:48.365Z,49.90
2019-05-29T13:48:03.534Z,49.10
2019-05-29T13:50:10.299Z,51.10
2019-05-29T13:52:12.379Z,52.10
2019-05-29T13:54:17.033Z,52.20
2019-05-29T13:56:17.141Z,51.50
2019-05-29T13:58:19.135Z,51.20
2019-05-29T14:00:33.945Z,53.40
2019-05-29T14:02:25.415Z,52.80
2019-05-29T14:04:27.242Z,51.80
2019-05-29T14:06:29.151Z,51.40
2019-05-29T14:08:31.294Z,52.60
2019-05-29T14:10:33.337Z,54.90
2019-05-29T14:12:35.722Z,52.30
2019-05-29T14:14:37.750Z,50.60
2019-05-29T14:16:39.764Z,50.90
2019-05-29T14:18:41.787Z,50.30
2019-05-29T14:20:43.990Z,50.70
2019-05-29T14:22:45.803Z,51.00
2019-05-29T14:24:47.760Z,53.40
2019-05-29T14:26:49.844Z,50.70
2019-05-29T14:28:51.647Z,50.10
2019-05-29T14:30:53.706Z,52.10
2019-05-29T14:32:55.620Z,52.20
2019-05-29T14:34:57.602Z,52.10
2019-05-29T14:36:59.478Z,53.80
2019-05-29T14:39:01.598Z,55.70
2019-05-29T14:41:03.895Z,56.30
2019-05-29T14:43:08.541Z,56.50
2019-05-29T14:45:12.371Z,55.30
2019-05-29T14:47:14.711Z,56.10
2019-05-29T14:49:16.673Z,55.30
2019-05-29T14:51:18.767Z,55.80
2019-05-29T14:53:20.813Z,55.40
2019-05-29T14:55:22.835Z,56.40
2019-05-29T14:57:26.400Z,57.50
2019-05-29T14:59:28.553Z,57.50
2019-05-29T15:01:30.549Z,58.40
2019-05-29T15:03:32.582Z,58.70
2019-05-29T15:05:35.955Z,57.70
2019-05-29T15:07:37.917Z,58.30
2019-05-29T15:09:39.831Z,58.50
2019-05-29T15:11:41.801Z,59.20
2019-05-29T15:13:43.857Z,59.00
2019-05-29T15:15:45.908Z,58.10
2019-05-29T15:17:47.827Z,58.00
2019-05-29T15:19:49.811Z,57.20
2019-05-29T15:21:51.865Z,58.20
2019-05-29T15:23:53.750Z,58.00
2019-05-29T15:25:55.635Z,58.40
2019-05-29T15:27:57.466Z,59.10
2019-05-29T15:29:59.375Z,60.00
2019-05-29T15:32:01.204Z,60.80
2019-05-29T15:34:03.210Z,61.70
2019-05-29T15:36:06.396Z,62.10
2019-05-29T15:38:08.778Z,63.50
2019-05-29T15:40:12.988Z,63.70
2019-05-29T15:42:15.086Z,63.80
2019-05-29T15:44:17.319Z,63.60
2019-05-29T15:46:19.355Z,61.90
2019-05-29T15:48:21.362Z,61.20
2019-05-29T15:50:23.395Z,62.80
2019-05-29T15:52:25.343Z,62.90
2019-05-29T15:54:27.328Z,63.90
2019-05-29T15:56:29.394Z,63.80
2019-05-29T15:58:31.533Z,62.90
2019-05-29T16:00:33.520Z,62.20
2019-05-29T16:02:35.474Z,61.90
2019-05-29T16:04:37.502Z,60.80
2019-05-29T16:06:39.502Z,61.00
2019-05-29T16:08:41.405Z,62.20
2019-05-29T16:10:43.452Z,59.80
2019-05-29T16:12:45.384Z,61.10
2019-05-29T16:14:47.198Z,61.50
2019-05-29T16:16:49.260Z,61.90
2019-05-29T16:18:51.255Z,62.50
2019-05-29T16:20:53.321Z,62.80
2019-05-29T16:22:55.259Z,62.80
2019-05-29T16:24:57.362Z,62.40
2019-05-29T16:27:08.291Z,62.00
2019-05-29T16:29:03.433Z,60.70
2019-05-29T16:31:05.352Z,61.60
2019-05-29T16:33:07.286Z,63.00
2019-05-29T16:35:10.823Z,63.20
2019-05-29T16:37:13.217Z,63.40
2019-05-29T16:39:15.731Z,61.90
2019-05-29T16:41:18.033Z,61.90
2019-05-29T16:43:20.194Z,62.10
2019-05-29T16:45:22.465Z,62.20
2019-05-29T16:47:24.595Z,58.20
2019-05-29T16:49:32.393Z,58.60
2019-05-29T16:51:36.418Z,59.30
2019-05-29T16:53:38.503Z,59.60
2019-05-29T16:55:53.016Z,60.10
2019-05-29T16:57:44.597Z,60.20
2019-05-29T16:59:46.509Z,60.50
2019-05-29T17:15:53.285Z,60.00
2019-05-29T17:18:40.349Z,59.80
2019-05-29T17:24:18.711Z,60.70
2019-05-29T17:26:11.165Z,60.50
2019-05-29T17:35:14.767Z,61.60
2019-05-29T17:37:23.136Z,60.30
2019-05-29T17:39:45.089Z,61.70
2019-05-29T17:42:32.048Z,62.50
2019-05-29T17:44:34.143Z,63.10
2019-05-29T17:46:35.939Z,63.70
2019-05-29T17:49:00.608Z,64.10
2019-05-29T18:23:19.925Z,66.60
2019-05-29T18:26:45.814Z,66.50
2019-05-29T18:32:58.878Z,66.70
2019-05-29T18:34:58.679Z,67.40
2019-05-29T18:37:46.387Z,67.30
2019-05-29T18:39:40.341Z,67.10
2019-05-29T18:42:45.539Z,67.90
2019-05-29T18:50:13.980Z,68.00
2019-05-29T19:17:10.980Z,67.00
2019-05-29T19:19:20.066Z,66.80
2019-05-29T19:21:22.352Z,66.90
2019-05-29T19:23:41.671Z,66.80
2019-05-29T19:25:43.740Z,66.70
2019-05-29T19:27:46.503Z,67.10
2019-05-29T19:29:48.473Z,67.50
2019-05-29T19:31:50.728Z,67.10
2019-05-29T19:34:54.536Z,66.20
2019-05-29T19:39:17.078Z,66.20
2019-05-29T19:41:35.497Z,66.70
2019-05-29T19:43:37.613Z,66.70
2019-05-29T19:45:39.996Z,66.70
2019-05-29T19:47:42.385Z,67.10
2019-05-29T19:49:45.581Z,66.30
2019-05-29T19:51:51.356Z,66.30
2019-05-29T19:53:55.273Z,66.70
2019-05-29T19:55:57.261Z,67.70
2019-05-29T19:58:06.049Z,68.60
2019-05-29T20:03:49.951Z,68.90
2019-05-29T20:05:58.343Z,69.40
2019-05-29T20:08:16.592Z,69.30
2019-05-29T20:10:20.898Z,68.80
2019-05-29T20:15:40.426Z,68.10
2019-05-29T20:20:43.811Z,67.90
2019-05-29T20:27:47.458Z,67.80
2019-05-29T20:33:32.468Z,69.30
2019-05-29T20:36:38.438Z,69.40
2019-05-29T20:39:38.474Z,68.70
2019-05-29T20:45:01.245Z,68.70
